Time;durP1;ratioP1;P1;durP2;ratioP2;P2;SDS_P1;SDS_P2;PMS_P1;PMS_P2;Temp;Humidity;BMP_temperature;BMP_pressure;BME280_temperature;BME280_humidity;BME280_pressure;Samples;Min_cycle;Max_cycle;Signal;HPM_P1;HPM_P2
2021/07/14 00:01:26;;;;;;;9.65;6.50;;;;;;;;;;4945865;29;20035;-70
2021/07/14 00:03:53;;;;;;;12.07;7.00;;;;;;;;;;4950657;29;20114;-70
2021/07/14 00:06:19;;;;;;;10.02;6.90;;;;;;;;;;4944902;29;20051;-70
2021/07/14 00:08:45;;;;;;;12.73;6.93;;;;;;;;;;4947326;29;20024;-68
2021/07/14 00:11:11;;;;;;;9.90;6.95;;;;;;;;;;4936708;29;20505;-67
2021/07/14 00:22:23;;;;;;;19.30;7.82;;;;;;;;;;4828097;29;20576;-69
2021/07/14 00:24:49;;;;;;;8.93;6.75;;;;;;;;;;4827046;29;20489;-69
2021/07/14 00:27:16;;;;;;;10.45;7.50;;;;;;;;;;4829062;29;20094;-69
2021/07/14 00:29:53;;;;;;;9.77;6.90;;;;;;;;;;4821575;29;20465;-70
2021/07/14 00:32:19;;;;;;;10.75;7.60;;;;;;;;;;4832304;29;20042;-68
2021/07/14 00:34:46;;;;;;;8.68;6.95;;;;;;;;;;4821974;29;20456;-67
2021/07/14 00:37:13;;;;;;;12.00;6.60;;;;;;;;;;4838265;29;20129;-70
2021/07/14 00:39:39;;;;;;;11.02;7.07;;;;;;;;;;4827422;29;20401;-67
2021/07/14 00:42:06;;;;;;;10.43;7.00;;;;;;;;;;4836723;29;20052;-68
2021/07/14 00:44:33;;;;;;;11.15;6.72;;;;;;;;;;4828644;29;20030;-67
2021/07/14 00:47:01;;;;;;;8.80;6.90;;;;;;;;;;4835179;29;20180;-67
2021/07/14 00:49:28;;;;;;;11.48;7.97;;;;;;;;;;4840268;29;20026;-67
2021/07/14 00:51:54;;;;;;;13.20;7.25;;;;;;;;;;4840582;29;20042;-69
2021/07/14 00:54:20;;;;;;;14.05;7.45;;;;;;;;;;4916647;29;20067;-68
2021/07/14 00:56:53;;;;;;;8.90;7.28;;;;;;;;;;4950641;29;20443;-68
2021/07/14 00:59:20;;;;;;;9.93;6.85;;;;;;;;;;4929708;29;20034;-69
2021/07/14 01:01:46;;;;;;;7.88;6.65;;;;;;;;;;4944606;28;20139;-67
2021/07/14 01:04:14;;;;;;;7.28;6.57;;;;;;;;;;4934084;29;20040;-69
2021/07/14 01:06:48;;;;;;;10.90;6.72;;;;;;;;;;4954672;29;20043;-67
2021/07/14 01:09:18;;;;;;;10.38;6.90;;;;;;;;;;4944195;29;20035;-71
2021/07/14 01:11:45;;;;;;;11.90;7.82;;;;;;;;;;4935711;29;20027;-70
2021/07/14 01:14:22;;;;;;;12.43;7.32;;;;;;;;;;4941137;29;20070;-67
2021/07/14 01:16:50;;;;;;;13.50;7.30;;;;;;;;;;4936829;29;20036;-69
2021/07/14 01:19:49;;;;;;;12.00;7.10;;;;;;;;;;4946303;29;20505;-67
2021/07/14 01:22:29;;;;;;;10.18;6.72;;;;;;;;;;4876269;29;20060;-68
2021/07/14 01:24:57;;;;;;;13.40;7.00;;;;;;;;;;4884731;29;20041;-68
2021/07/14 01:27:24;;;;;;;15.50;6.85;;;;;;;;;;4878278;29;20063;-67
2021/07/14 01:29:51;;;;;;;8.73;7.07;;;;;;;;;;4876116;29;20029;-68
2021/07/14 01:32:18;;;;;;;8.13;6.75;;;;;;;;;;4880739;29;20048;-67
2021/07/14 01:34:47;;;;;;;8.75;6.60;;;;;;;;;;4892140;29;20398;-69
2021/07/14 01:37:15;;;;;;;10.25;6.70;;;;;;;;;;4881706;29;20096;-68
2021/07/14 01:39:43;;;;;;;11.15;6.90;;;;;;;;;;4879709;29;20159;-69
2021/07/14 01:42:10;;;;;;;10.32;7.43;;;;;;;;;;4884433;29;20036;-69
2021/07/14 01:44:37;;;;;;;10.30;6.53;;;;;;;;;;4872866;29;20048;-68
2021/07/14 01:47:03;;;;;;;9.60;6.55;;;;;;;;;;4873747;29;20045;-68
2021/07/14 01:49:31;;;;;;;12.32;7.30;;;;;;;;;;4874258;29;20037;-66
2021/07/14 01:52:03;;;;;;;9.25;6.80;;;;;;;;;;4887079;29;20538;-67
2021/07/14 01:54:33;;;;;;;11.85;6.50;;;;;;;;;;4883005;29;20460;-69
2021/07/14 01:57:01;;;;;;;12.68;6.78;;;;;;;;;;4896605;29;20069;-69
2021/07/14 01:59:28;;;;;;;9.85;6.25;;;;;;;;;;4947683;29;20082;-67
2021/07/14 02:01:57;;;;;;;16.70;6.88;;;;;;;;;;4941082;29;20028;-68
2021/07/14 02:04:33;;;;;;;9.68;6.50;;;;;;;;;;4938183;29;20082;-67
2021/07/14 02:07:05;;;;;;;14.10;6.82;;;;;;;;;;4938436;29;20498;-67
2021/07/14 02:09:32;;;;;;;10.75;6.90;;;;;;;;;;4941412;29;20501;-68
2021/07/14 02:11:59;;;;;;;10.23;6.72;;;;;;;;;;4935150;29;20028;-66
2021/07/14 02:14:28;;;;;;;13.38;6.90;;;;;;;;;;4941770;29;20027;-68
2021/07/14 02:16:55;;;;;;;13.48;6.47;;;;;;;;;;4938584;29;20039;-68
2021/07/14 02:19:35;;;;;;;14.88;6.60;;;;;;;;;;4947043;29;20032;-67
2021/07/14 02:22:02;;;;;;;13.70;7.20;;;;;;;;;;4953837;29;20033;-69
2021/07/14 02:24:30;;;;;;;11.48;6.70;;;;;;;;;;4938931;29;20103;-69
2021/07/14 02:26:57;;;;;;;15.10;6.43;;;;;;;;;;4951836;29;20033;-67
2021/07/14 02:29:24;;;;;;;12.52;6.82;;;;;;;;;;4938501;29;20034;-67
2021/07/14 02:31:50;;;;;;;9.90;6.78;;;;;;;;;;4941132;29;20028;-66
2021/07/14 02:34:16;;;;;;;12.43;6.63;;;;;;;;;;4938856;29;20519;-68
2021/07/14 02:36:43;;;;;;;9.35;6.25;;;;;;;;;;4947735;29;20501;-66
2021/07/14 02:39:10;;;;;;;8.95;6.53;;;;;;;;;;4945181;29;20031;-69
2021/07/14 02:41:51;;;;;;;11.98;6.30;;;;;;;;;;4938330;29;20035;-68
2021/07/14 02:44:20;;;;;;;9.25;6.80;;;;;;;;;;4951845;29;20035;-69
2021/07/14 02:46:48;;;;;;;14.05;6.70;;;;;;;;;;4943492;29;20042;-67
2021/07/14 02:49:17;;;;;;;10.45;6.68;;;;;;;;;;4941083;29;20040;-68
2021/07/14 02:51:44;;;;;;;15.07;6.97;;;;;;;;;;4945038;29;20039;-68
2021/07/14 02:54:12;;;;;;;10.88;6.20;;;;;;;;;;4954567;29;20023;-68
2021/07/14 02:56:40;;;;;;;9.27;6.18;;;;;;;;;;4936787;29;20046;-68
2021/07/14 02:59:08;;;;;;;9.63;6.60;;;;;;;;;;4939434;29;20031;-69
2021/07/14 03:01:40;;;;;;;19.52;7.30;;;;;;;;;;4941062;29;20119;-68
2021/07/14 03:04:11;;;;;;;14.32;6.88;;;;;;;;;;4947123;29;20038;-70
2021/07/14 03:06:38;;;;;;;9.90;6.18;;;;;;;;;;4929717;29;20047;-68
2021/07/14 03:09:05;;;;;;;10.98;6.57;;;;;;;;;;4941539;29;20054;-66
2021/07/14 03:11:34;;;;;;;11.45;6.63;;;;;;;;;;4937654;29;20031;-68
2021/07/14 03:14:00;;;;;;;10.23;6.30;;;;;;;;;;4938560;29;20482;-68
2021/07/14 03:16:26;;;;;;;11.60;6.38;;;;;;;;;;4938570;29;20473;-69
2021/07/14 03:18:54;;;;;;;12.13;6.38;;;;;;;;;;4947567;29;20092;-68
2021/07/14 03:21:20;;;;;;;8.75;6.80;;;;;;;;;;4957473;29;20358;-66
2021/07/14 03:23:46;;;;;;;10.68;6.47;;;;;;;;;;4945724;29;20030;-68
2021/07/14 03:26:15;;;;;;;10.48;6.45;;;;;;;;;;4944412;29;20039;-67
2021/07/14 03:28:41;;;;;;;15.00;6.80;;;;;;;;;;4939620;29;20039;-66
2021/07/14 03:31:08;;;;;;;9.00;6.40;;;;;;;;;;4935496;29;20032;-68
2021/07/14 03:33:34;;;;;;;14.70;6.57;;;;;;;;;;4948241;29;20027;-69
2021/07/14 03:36:02;;;;;;;19.90;7.13;;;;;;;;;;4950890;29;20015;-66
2021/07/14 03:38:29;;;;;;;10.02;6.65;;;;;;;;;;4936951;29;20036;-67
2021/07/14 03:40:56;;;;;;;12.45;6.40;;;;;;;;;;4932544;29;20106;-68
2021/07/14 03:43:23;;;;;;;10.70;6.40;;;;;;;;;;4948318;29;20074;-68
2021/07/14 03:45:51;;;;;;;13.80;6.63;;;;;;;;;;4941481;29;20036;-69
2021/07/14 03:48:18;;;;;;;10.82;6.65;;;;;;;;;;4954110;29;20031;-67
2021/07/14 03:50:47;;;;;;;9.75;6.28;;;;;;;;;;4940303;29;20051;-68
2021/07/14 03:53:14;;;;;;;9.88;6.20;;;;;;;;;;4956072;29;20027;-67
2021/07/14 03:55:40;;;;;;;8.43;5.80;;;;;;;;;;4940101;29;20170;-66
2021/07/14 03:58:06;;;;;;;9.10;6.43;;;;;;;;;;4939063;29;20091;-66
2021/07/14 04:00:33;;;;;;;12.05;6.18;;;;;;;;;;4941512;29;20020;-67
2021/07/14 04:02:59;;;;;;;10.18;6.38;;;;;;;;;;4942486;29;20038;-68
2021/07/14 04:05:26;;;;;;;9.60;6.00;;;;;;;;;;4944371;29;20031;-68
2021/07/14 04:07:53;;;;;;;10.68;6.70;;;;;;;;;;4941411;29;20035;-68
2021/07/14 04:10:19;;;;;;;11.25;6.25;;;;;;;;;;4943114;29;20028;-68
2021/07/14 04:12:46;;;;;;;8.65;6.40;;;;;;;;;;4947271;29;20059;-67
2021/07/14 04:15:12;;;;;;;11.20;6.32;;;;;;;;;;4932927;29;20031;-65
2021/07/14 04:17:38;;;;;;;14.70;6.88;;;;;;;;;;4940786;29;20054;-66
2021/07/14 04:20:05;;;;;;;11.73;6.13;;;;;;;;;;4939410;29;20034;-69
2021/07/14 04:22:31;;;;;;;10.70;6.82;;;;;;;;;;4943360;29;20521;-66
2021/07/14 04:24:59;;;;;;;10.77;6.45;;;;;;;;;;4929834;29;20035;-66
2021/07/14 04:27:26;;;;;;;9.18;6.28;;;;;;;;;;4935729;29;20501;-65
2021/07/14 04:29:52;;;;;;;6.75;5.95;;;;;;;;;;4935893;29;20070;-70
2021/07/14 04:32:18;;;;;;;12.15;6.80;;;;;;;;;;4937298;29;20505;-66
2021/07/14 04:34:44;;;;;;;12.80;6.50;;;;;;;;;;4942177;29;20494;-62
2021/07/14 04:37:10;;;;;;;12.65;6.30;;;;;;;;;;4935373;29;20043;-69
2021/07/14 04:39:36;;;;;;;12.95;6.05;;;;;;;;;;4940578;29;20451;-78
2021/07/14 04:42:02;;;;;;;15.15;6.80;;;;;;;;;;4924151;29;20046;-69
2021/07/14 04:44:31;;;;;;;10.27;6.32;;;;;;;;;;4944703;29;20031;-65
2021/07/14 04:46:58;;;;;;;12.30;6.72;;;;;;;;;;4941437;29;20040;-65
2021/07/14 04:49:24;;;;;;;8.27;6.28;;;;;;;;;;4943869;29;20031;-66
2021/07/14 04:51:50;;;;;;;14.52;7.10;;;;;;;;;;4947289;29;20062;-68
2021/07/14 04:54:16;;;;;;;7.95;6.88;;;;;;;;;;4946556;29;20400;-69
2021/07/14 04:56:49;;;;;;;10.60;6.45;;;;;;;;;;4953263;29;20032;-69
2021/07/14 04:59:15;;;;;;;;;;;;;;;;;;4938514;29;20055;-65
2021/07/14 05:01:41;;;;;;;10.73;6.53;;;;;;;;;;4935719;29;20352;-68
2021/07/14 05:04:07;;;;;;;12.40;6.97;;;;;;;;;;4930704;29;20091;-65
2021/07/14 05:06:33;;;;;;;10.00;6.97;;;;;;;;;;4936288;29;20431;-64
2021/07/14 05:08:59;;;;;;;12.40;6.60;;;;;;;;;;4937082;29;20412;-69
2021/07/14 05:11:25;;;;;;;12.82;6.93;;;;;;;;;;4937916;29;20083;-69
2021/07/14 05:13:51;;;;;;;12.07;6.75;;;;;;;;;;4916634;29;20094;-69
2021/07/14 05:16:17;;;;;;;13.80;6.60;;;;;;;;;;4935733;29;20110;-69
2021/07/14 05:18:45;;;;;;;12.65;6.75;;;;;;;;;;4934239;29;20051;-69
2021/07/14 05:21:11;;;;;;;14.95;6.88;;;;;;;;;;4934870;29;20441;-66
2021/07/14 05:23:37;;;;;;;13.73;6.35;;;;;;;;;;4939146;29;20418;-65
2021/07/14 05:26:03;;;;;;;11.55;6.78;;;;;;;;;;4935835;29;20046;-65
2021/07/14 05:28:29;;;;;;;12.13;6.90;;;;;;;;;;4929960;29;20023;-67
2021/07/14 05:30:55;;;;;;;11.88;6.10;;;;;;;;;;4933122;29;20027;-67
2021/07/14 05:33:22;;;;;;;12.23;6.85;;;;;;;;;;4940153;29;20028;-68
2021/07/14 05:35:48;;;;;;;13.38;6.47;;;;;;;;;;4940005;29;20032;-68
2021/07/14 05:38:19;;;;;;;10.90;6.50;;;;;;;;;;4933807;29;20501;-67
2021/07/14 05:40:48;;;;;;;12.70;7.15;;;;;;;;;;4936615;29;20040;-65
2021/07/14 05:43:14;;;;;;;10.70;7.05;;;;;;;;;;4939560;29;20046;-67
2021/07/14 05:45:42;;;;;;;11.02;6.50;;;;;;;;;;4937504;29;20119;-68
2021/07/14 05:48:08;;;;;;;13.48;6.53;;;;;;;;;;4928276;29;20505;-66
2021/07/14 05:50:35;;;;;;;19.85;7.03;;;;;;;;;;4935424;29;20036;-69
2021/07/14 05:53:01;;;;;;;8.43;6.35;;;;;;;;;;4927293;29;20046;-65
2021/07/14 05:55:27;;;;;;;14.57;6.78;;;;;;;;;;4931546;29;20537;-65
2021/07/14 05:57:54;;;;;;;9.88;6.88;;;;;;;;;;4936346;29;20031;-65
2021/07/14 06:00:20;;;;;;;17.67;6.78;;;;;;;;;;4934850;29;20498;-69
2021/07/14 06:02:46;;;;;;;15.38;7.13;;;;;;;;;;4933813;29;20079;-68
2021/07/14 06:05:13;;;;;;;12.45;6.95;;;;;;;;;;4927728;29;20099;-67
2021/07/14 06:07:42;;;;;;;9.88;6.75;;;;;;;;;;4931122;29;20126;-67
2021/07/14 06:10:08;;;;;;;12.85;6.22;;;;;;;;;;4935779;29;20513;-69
2021/07/14 06:12:34;;;;;;;10.32;6.95;;;;;;;;;;4933266;29;20028;-69
2021/07/14 06:15:00;;;;;;;9.60;6.55;;;;;;;;;;4933572;29;20024;-69
2021/07/14 06:17:27;;;;;;;14.88;7.20;;;;;;;;;;4932840;29;20059;-78
2021/07/14 06:19:53;;;;;;;10.02;6.78;;;;;;;;;;4935533;29;20036;-84
2021/07/14 06:22:19;;;;;;;14.85;6.40;;;;;;;;;;4922210;29;20028;-82
2021/07/14 06:24:45;;;;;;;19.02;7.13;;;;;;;;;;4918101;29;20031;-79
2021/07/14 06:27:12;;;;;;;15.82;7.32;;;;;;;;;;4931349;29;20036;-80
2021/07/14 06:29:38;;;;;;;9.90;6.85;;;;;;;;;;4933735;29;20063;-78
2021/07/14 06:32:05;;;;;;;11.80;6.75;;;;;;;;;;4934828;29;20031;-72
2021/07/14 06:34:31;;;;;;;11.35;6.57;;;;;;;;;;4923947;29;20167;-72
2021/07/14 06:36:57;;;;;;;18.10;7.00;;;;;;;;;;4933414;29;20059;-71
2021/07/14 06:39:23;;;;;;;15.15;7.05;;;;;;;;;;4933144;29;20039;-67
2021/07/14 06:41:50;;;;;;;13.38;7.28;;;;;;;;;;4932639;29;20036;-72
2021/07/14 06:44:16;;;;;;;12.57;6.85;;;;;;;;;;4933398;29;20486;-72
2021/07/14 06:46:42;;;;;;;11.07;6.88;;;;;;;;;;4932502;29;20094;-71
2021/07/14 06:49:11;;;;;;;11.07;6.63;;;;;;;;;;4935908;29;20046;-71
2021/07/14 06:51:38;;;;;;;14.00;7.07;;;;;;;;;;4913405;29;20138;-83
2021/07/14 06:54:07;;;;;;;13.50;7.03;;;;;;;;;;4929209;29;20028;-79
2021/07/14 06:56:35;;;;;;;18.90;8.18;;;;;;;;;;4936021;29;20437;-66
2021/07/14 06:59:01;;;;;;;13.65;7.20;;;;;;;;;;4935450;29;20031;-80
2021/07/14 07:01:43;;;;;;;9.43;7.13;;;;;;;;;;4934463;29;20035;-83
2021/07/14 07:04:09;;;;;;;12.30;7.00;;;;;;;;;;4921713;29;20066;-77
2021/07/14 07:06:36;;;;;;;14.45;6.60;;;;;;;;;;4923382;29;20043;-83
2021/07/14 07:09:03;;;;;;;9.43;7.05;;;;;;;;;;4928173;29;20020;-83
2021/07/14 07:11:31;;;;;;;12.10;7.03;;;;;;;;;;4935464;29;20028;-72
2021/07/14 07:13:57;;;;;;;9.82;6.80;;;;;;;;;;4935939;29;20027;-76
2021/07/14 07:16:23;;;;;;;12.95;6.95;;;;;;;;;;4935521;29;20406;-75
2021/07/14 07:18:49;;;;;;;10.75;6.93;;;;;;;;;;4938684;29;20047;-72
2021/07/14 07:21:15;;;;;;;12.75;7.43;;;;;;;;;;4933448;29;20054;-64
2021/07/14 07:23:41;;;;;;;9.48;6.90;;;;;;;;;;4941177;29;20038;-80
2021/07/14 07:26:07;;;;;;;11.23;7.18;;;;;;;;;;4934355;29;20032;-64
2021/07/14 07:28:39;;;;;;;10.77;7.00;;;;;;;;;;4920209;29;20070;-64
2021/07/14 07:31:07;;;;;;;10.93;6.80;;;;;;;;;;4937022;29;20040;-65
2021/07/14 07:33:33;;;;;;;11.88;7.13;;;;;;;;;;4935906;29;20035;-72
2021/07/14 07:35:59;;;;;;;11.95;7.15;;;;;;;;;;4936730;29;20497;-62
2021/07/14 07:38:25;;;;;;;10.85;7.05;;;;;;;;;;4936468;29;20492;-73
2021/07/14 07:40:53;;;;;;;12.02;6.88;;;;;;;;;;4936356;29;20493;-69
2021/07/14 07:43:20;;;;;;;20.15;7.00;;;;;;;;;;4931648;29;20027;-69
2021/07/14 07:45:46;;;;;;;11.05;7.38;;;;;;;;;;4936680;29;20039;-71
2021/07/14 07:48:26;;;;;;;13.38;7.53;;;;;;;;;;4939003;29;20090;-80
2021/07/14 07:51:21;;;;;;;12.80;7.10;;;;;;;;;;4925270;29;20055;-71
2021/07/14 07:53:53;;;;;;;12.00;7.30;;;;;;;;;;4917945;29;20034;-70
2021/07/14 07:56:19;;;;;;;10.43;7.40;;;;;;;;;;4935369;29;20027;-67
2021/07/14 07:58:45;;;;;;;15.05;7.30;;;;;;;;;;4914494;29;20474;-68
2021/07/14 08:01:11;;;;;;;15.27;7.32;;;;;;;;;;4928951;29;20032;-80
2021/07/14 08:03:40;;;;;;;17.08;7.30;;;;;;;;;;4933212;29;20028;-75
2021/07/14 08:06:09;;;;;;;15.35;7.13;;;;;;;;;;4938485;29;20043;-76
2021/07/14 08:08:35;;;;;;;11.43;7.60;;;;;;;;;;4928595;29;20035;-69
2021/07/14 08:11:01;;;;;;;11.07;7.25;;;;;;;;;;4932283;29;20461;-72
2021/07/14 08:13:27;;;;;;;11.75;7.30;;;;;;;;;;4932800;29;20028;-71
2021/07/14 08:15:55;;;;;;;16.63;7.95;;;;;;;;;;4933512;29;20111;-72
2021/07/14 08:18:22;;;;;;;10.13;6.88;;;;;;;;;;4935329;29;20524;-70
2021/07/14 08:20:48;;;;;;;13.00;7.50;;;;;;;;;;4936879;29;20036;-74
2021/07/14 08:23:14;;;;;;;13.70;7.55;;;;;;;;;;4934636;29;20028;-68
2021/07/14 08:25:45;;;;;;;15.35;7.20;;;;;;;;;;4919159;29;20087;-68
2021/07/14 08:28:14;;;;;;;12.48;7.82;;;;;;;;;;4913577;29;20569;-68
2021/07/14 08:30:41;;;;;;;12.65;7.70;;;;;;;;;;4935518;29;20107;-76
2021/07/14 08:33:07;;;;;;;12.45;7.80;;;;;;;;;;4935249;29;20079;-75
2021/07/14 08:35:36;;;;;;;9.60;7.07;;;;;;;;;;4931533;29;20087;-75
2021/07/14 08:38:05;;;;;;;21.55;8.23;;;;;;;;;;4919150;29;20107;-78
2021/07/14 08:40:31;;;;;;;12.32;7.57;;;;;;;;;;4933242;29;20494;-71
2021/07/14 08:43:01;;;;;;;10.75;6.95;;;;;;;;;;4915416;29;20066;-71
2021/07/14 08:45:28;;;;;;;11.77;6.70;;;;;;;;;;4932634;29;20046;-71
2021/07/14 08:47:54;;;;;;;11.65;6.47;;;;;;;;;;4933410;29;20490;-69
2021/07/14 08:50:21;;;;;;;15.85;6.90;;;;;;;;;;4909435;29;20163;-70
2021/07/14 08:52:49;;;;;;;10.75;6.75;;;;;;;;;;4943008;29;20071;-68
2021/07/14 08:55:17;;;;;;;11.15;6.70;;;;;;;;;;4917454;29;20115;-70
2021/07/14 08:57:44;;;;;;;12.02;7.00;;;;;;;;;;4931827;29;20032;-69
2021/07/14 09:00:12;;;;;;;11.90;7.32;;;;;;;;;;4932740;29;20028;-69
2021/07/14 09:02:41;;;;;;;14.23;7.43;;;;;;;;;;4933955;29;20074;-70
2021/07/14 09:05:08;;;;;;;15.60;7.20;;;;;;;;;;4935785;29;20026;-72
2021/07/14 09:07:37;;;;;;;14.70;6.80;;;;;;;;;;4940429;29;20442;-70
2021/07/14 09:10:07;;;;;;;11.40;6.88;;;;;;;;;;4932967;29;20031;-71
2021/07/14 09:12:37;;;;;;;13.60;7.32;;;;;;;;;;4931611;29;20055;-69
2021/07/14 09:15:10;;;;;;;11.90;7.50;;;;;;;;;;4935020;29;20028;-69
2021/07/14 09:17:47;;;;;;;12.27;7.80;;;;;;;;;;4930475;29;20052;-68
2021/07/14 09:20:14;;;;;;;12.88;7.07;;;;;;;;;;4929203;29;20496;-69
2021/07/14 09:22:44;;;;;;;15.68;7.20;;;;;;;;;;4934095;29;20565;-71
2021/07/14 09:25:12;;;;;;;15.32;7.47;;;;;;;;;;4917174;29;20046;-71
2021/07/14 09:27:38;;;;;;;13.10;6.90;;;;;;;;;;4935522;29;20126;-70
2021/07/14 09:30:15;;;;;;;22.42;7.53;;;;;;;;;;4934874;29;20077;-69
2021/07/14 09:32:59;;;;;;;13.27;7.10;;;;;;;;;;4938032;29;20039;-70
2021/07/14 09:35:37;;;;;;;11.88;7.50;;;;;;;;;;4920552;29;20038;-70
2021/07/14 09:38:29;;;;;;;14.50;7.18;;;;;;;;;;4922508;29;20016;-68
2021/07/14 09:41:15;;;;;;;14.90;7.28;;;;;;;;;;4883267;29;20504;-70
2021/07/14 09:43:43;;;;;;;17.17;7.20;;;;;;;;;;4874641;29;20045;-70
2021/07/14 09:46:13;;;;;;;13.65;7.15;;;;;;;;;;4879976;29;20049;-72
2021/07/14 09:48:43;;;;;;;16.83;6.93;;;;;;;;;;4877487;29;20049;-72
2021/07/14 09:51:12;;;;;;;10.20;6.63;;;;;;;;;;4872862;29;20045;-72
2021/07/14 09:53:42;;;;;;;13.38;7.00;;;;;;;;;;4886411;29;20040;-71
2021/07/14 09:56:16;;;;;;;17.88;6.88;;;;;;;;;;4876030;29;20164;-71
2021/07/14 09:58:42;;;;;;;14.82;7.00;;;;;;;;;;4881998;29;20044;-70
2021/07/14 10:01:12;;;;;;;13.13;7.38;;;;;;;;;;4877775;29;20132;-69
2021/07/14 10:03:39;;;;;;;15.90;6.95;;;;;;;;;;4875332;29;20032;-72
2021/07/14 10:06:10;;;;;;;13.73;6.88;;;;;;;;;;4879470;29;20125;-70
2021/07/14 10:08:38;;;;;;;12.07;6.78;;;;;;;;;;4873969;29;20120;-67
2021/07/14 10:11:24;;;;;;;17.10;7.53;;;;;;;;;;4893359;29;20038;-71
2021/07/14 10:14:01;;;;;;;17.10;6.97;;;;;;;;;;4931899;29;20370;-73
2021/07/14 10:16:31;;;;;;;13.52;7.35;;;;;;;;;;4929673;29;20393;-78
2021/07/14 10:19:02;;;;;;;14.18;7.10;;;;;;;;;;4940079;29;20101;-75
2021/07/14 10:21:28;;;;;;;16.60;7.63;;;;;;;;;;4937345;29;20030;-72
2021/07/14 10:23:55;;;;;;;10.90;7.10;;;;;;;;;;4916270;29;20112;-71
2021/07/14 10:26:23;;;;;;;11.27;7.05;;;;;;;;;;4927313;29;20512;-70
2021/07/14 10:28:50;;;;;;;14.63;7.20;;;;;;;;;;4927625;29;20056;-68
2021/07/14 10:31:18;;;;;;;11.48;7.00;;;;;;;;;;4918158;29;20418;-72
2021/07/14 10:33:45;;;;;;;11.82;6.78;;;;;;;;;;4933807;29;20058;-68
2021/07/14 10:36:11;;;;;;;14.55;7.10;;;;;;;;;;4914392;29;20047;-69
2021/07/14 10:38:38;;;;;;;15.95;6.35;;;;;;;;;;4931996;29;20556;-75
2021/07/14 10:41:06;;;;;;;17.83;6.75;;;;;;;;;;4935189;29;20019;-75
2021/07/14 10:43:34;;;;;;;19.98;7.70;;;;;;;;;;4943930;29;20024;-81
2021/07/14 10:46:00;;;;;;;14.48;6.97;;;;;;;;;;4935680;29;20039;-80
2021/07/14 10:48:26;;;;;;;12.18;6.88;;;;;;;;;;4931831;29;20122;-78
2021/07/14 10:50:54;;;;;;;11.68;6.65;;;;;;;;;;4931943;29;20084;-72
2021/07/14 10:53:21;;;;;;;14.07;6.72;;;;;;;;;;4934100;29;20036;-73
2021/07/14 10:55:48;;;;;;;17.15;6.63;;;;;;;;;;4917037;29;20039;-77
2021/07/14 10:58:19;;;;;;;16.42;6.32;;;;;;;;;;4932138;29;20038;-72
2021/07/14 11:00:46;;;;;;;9.73;6.03;;;;;;;;;;4934475;29;20019;-79
2021/07/14 11:03:45;;;;;;;14.52;6.10;;;;;;;;;;4921416;29;20032;-75
2021/07/14 11:06:12;;;;;;;36.53;7.15;;;;;;;;;;4850261;29;20053;-74
2021/07/14 11:08:38;;;;;;;11.20;6.55;;;;;;;;;;4839556;29;20049;-75
2021/07/14 11:11:04;;;;;;;10.98;6.25;;;;;;;;;;4846195;29;20032;-74
2021/07/14 11:13:32;;;;;;;11.82;6.03;;;;;;;;;;4841796;29;20552;-72
2021/07/14 11:15:58;;;;;;;14.15;6.93;;;;;;;;;;4850174;29;20044;-72
2021/07/14 11:18:30;;;;;;;11.25;6.15;;;;;;;;;;4849966;29;20500;-76
2021/07/14 11:20:59;;;;;;;15.43;6.38;;;;;;;;;;4856952;29;20045;-79
2021/07/14 11:23:26;;;;;;;13.77;6.40;;;;;;;;;;4850294;29;20037;-73
2021/07/14 11:25:56;;;;;;;16.02;6.03;;;;;;;;;;4846678;29;20034;-74
2021/07/14 11:28:23;;;;;;;11.23;6.25;;;;;;;;;;4853943;29;20044;-74
2021/07/14 11:30:51;;;;;;;13.00;7.90;;;;;;;;;;4845011;29;20469;-75
2021/07/14 11:33:36;;;;;;;17.48;6.68;;;;;;;;;;4848227;29;20045;-72
2021/07/14 11:36:06;;;;;;;13.50;6.57;;;;;;;;;;4852036;29;20161;-71
2021/07/14 11:38:41;;;;;;;108.40;11.75;;;;;;;;;;4850076;29;20116;-71
2021/07/14 11:41:17;;;;;;;14.23;6.32;;;;;;;;;;4869654;29;20043;-70
2021/07/14 11:43:43;;;;;;;12.23;6.03;;;;;;;;;;4930783;29;20043;-78
2021/07/14 11:46:14;;;;;;;15.25;6.53;;;;;;;;;;4933083;29;20043;-80
2021/07/14 11:48:43;;;;;;;16.77;5.63;;;;;;;;;;4931188;29;20429;-69
2021/07/14 11:51:15;;;;;;;15.68;6.20;;;;;;;;;;4925409;29;20031;-79
2021/07/14 11:54:02;;;;;;;17.43;6.37;;;;;;;;;;4917305;29;20114;-77
2021/07/14 11:56:38;;;;;;;13.40;5.63;;;;;;;;;;4918551;29;20035;-73
2021/07/14 11:59:14;;;;;;;16.00;5.82;;;;;;;;;;4939220;29;20036;-69
2021/07/14 12:01:42;;;;;;;12.10;5.47;;;;;;;;;;4916413;29;20074;-76
2021/07/14 12:04:11;;;;;;;30.88;7.05;;;;;;;;;;4928081;29;20800;-85
2021/07/14 12:06:38;;;;;;;15.27;5.72;;;;;;;;;;4917100;29;20402;-77
2021/07/14 12:09:13;;;;;;;14.38;5.70;;;;;;;;;;4934134;29;20417;-71
2021/07/14 12:11:39;;;;;;;28.67;6.78;;;;;;;;;;4931481;29;20027;-70
2021/07/14 12:14:05;;;;;;;14.98;5.90;;;;;;;;;;4935200;29;20031;-68
2021/07/14 12:16:32;;;;;;;10.60;5.22;;;;;;;;;;4932733;29;20039;-73
2021/07/14 12:18:59;;;;;;;19.13;6.45;;;;;;;;;;4932241;29;20039;-72
2021/07/14 12:21:36;;;;;;;15.93;6.72;;;;;;;;;;4928395;29;20031;-74
2021/07/14 12:24:02;;;;;;;15.05;5.40;;;;;;;;;;4929741;29;20393;-71
2021/07/14 12:26:28;;;;;;;12.52;5.80;;;;;;;;;;4929799;29;20044;-69
2021/07/14 12:28:54;;;;;;;14.55;5.72;;;;;;;;;;4937613;29;20028;-69
2021/07/14 12:31:20;;;;;;;11.52;5.43;;;;;;;;;;4938294;29;20030;-68
2021/07/14 12:33:51;;;;;;;13.02;5.50;;;;;;;;;;4937439;29;20026;-73
2021/07/14 12:36:17;;;;;;;15.35;6.43;;;;;;;;;;4929248;29;20078;-69
2021/07/14 12:38:51;;;;;;;20.63;5.88;;;;;;;;;;4935455;29;20027;-68
2021/07/14 12:41:17;;;;;;;14.05;5.85;;;;;;;;;;4935274;29;20422;-65
2021/07/14 12:43:44;;;;;;;21.50;6.20;;;;;;;;;;4933917;29;20568;-73
2021/07/14 12:46:10;;;;;;;18.83;5.93;;;;;;;;;;4941613;29;20066;-74
2021/07/14 12:48:36;;;;;;;15.57;5.78;;;;;;;;;;4931279;29;20039;-74
2021/07/14 12:51:02;;;;;;;18.80;6.30;;;;;;;;;;4935614;29;20031;-71
2021/07/14 12:53:28;;;;;;;12.20;5.57;;;;;;;;;;4927296;29;20028;-74
2021/07/14 12:55:55;;;;;;;10.95;6.07;;;;;;;;;;4932984;29;20026;-73
2021/07/14 12:58:23;;;;;;;16.08;6.15;;;;;;;;;;4933378;29;20385;-72
2021/07/14 13:00:50;;;;;;;13.00;5.95;;;;;;;;;;4931826;29;20039;-73
2021/07/14 13:03:21;;;;;;;16.65;6.18;;;;;;;;;;4942724;29;20050;-73
2021/07/14 13:05:49;;;;;;;12.73;5.85;;;;;;;;;;4935093;29;20016;-66
2021/07/14 13:08:19;;;;;;;19.85;6.15;;;;;;;;;;4935759;29;20126;-67
2021/07/14 13:10:45;;;;;;;15.02;5.72;;;;;;;;;;4931089;29;20024;-75
2021/07/14 13:13:15;;;;;;;13.75;5.50;;;;;;;;;;4939167;29;20135;-71
2021/07/14 13:15:43;;;;;;;22.27;6.30;;;;;;;;;;4937569;29;20494;-76
2021/07/14 13:18:11;;;;;;;16.85;6.40;;;;;;;;;;4931473;29;20052;-66
2021/07/14 13:20:38;;;;;;;16.95;5.82;;;;;;;;;;4926964;29;20020;-72
2021/07/14 13:23:05;;;;;;;12.27;5.88;;;;;;;;;;4933004;29;20127;-72
2021/07/14 13:26:00;;;;;;;14.93;5.78;;;;;;;;;;4928872;29;20030;-71
2021/07/14 13:28:36;;;;;;;10.27;5.25;;;;;;;;;;4913597;29;20481;-69
2021/07/14 13:31:22;;;;;;;14.95;6.15;;;;;;;;;;4929776;29;20442;-72
2021/07/14 13:34:09;;;;;;;24.60;6.03;;;;;;;;;;4913719;29;20040;-69
2021/07/14 13:36:38;;;;;;;10.65;5.60;;;;;;;;;;4927638;29;20036;-66
2021/07/14 13:39:18;;;;;;;13.63;5.55;;;;;;;;;;4931211;29;20075;-69
2021/07/14 13:41:45;;;;;;;12.65;5.80;;;;;;;;;;4931652;29;20028;-70
2021/07/14 13:44:37;;;;;;;11.25;5.68;;;;;;;;;;4926052;29;20036;-69
2021/07/14 13:47:04;;;;;;;20.37;6.67;;;;;;;;;;4856096;29;20061;-71
2021/07/14 13:49:38;;;;;;;14.25;5.90;;;;;;;;;;4856676;29;20069;-73
2021/07/14 13:52:04;;;;;;;15.70;6.40;;;;;;;;;;4855717;29;20116;-72
2021/07/14 13:54:41;;;;;;;16.63;5.43;;;;;;;;;;4855480;29;20032;-69
2021/07/14 13:57:08;;;;;;;14.32;6.30;;;;;;;;;;4856825;29;20033;-72
2021/07/14 13:59:39;;;;;;;13.35;5.70;;;;;;;;;;4855419;29;20068;-69
2021/07/14 14:02:09;;;;;;;12.43;5.78;;;;;;;;;;4856445;29;20107;-71
2021/07/14 14:04:44;;;;;;;15.43;6.22;;;;;;;;;;4855789;29;20051;-64
2021/07/14 14:07:30;;;;;;;12.18;5.50;;;;;;;;;;4856545;29;20137;-71
2021/07/14 14:10:05;;;;;;;14.15;6.18;;;;;;;;;;4858951;29;20098;-65
2021/07/14 14:12:37;;;;;;;13.15;5.60;;;;;;;;;;4859240;29;20048;-69
2021/07/14 14:15:14;;;;;;;11.85;6.30;;;;;;;;;;4861080;29;20040;-72
2021/07/14 14:17:41;;;;;;;18.58;6.38;;;;;;;;;;4856286;29;20062;-62
2021/07/14 14:20:10;;;;;;;65.63;9.73;;;;;;;;;;4856243;29;20073;-62
2021/07/14 14:22:36;;;;;;;14.95;6.72;;;;;;;;;;4860632;29;20037;-63
2021/07/14 14:25:10;;;;;;;13.43;6.20;;;;;;;;;;4924378;29;20647;-69
2021/07/14 14:28:00;;;;;;;13.98;5.50;;;;;;;;;;4939760;29;20042;-71
2021/07/14 14:30:27;;;;;;;9.88;5.43;;;;;;;;;;4934263;29;20673;-67
2021/07/14 14:32:58;;;;;;;22.50;6.60;;;;;;;;;;4937681;29;20028;-73
2021/07/14 14:35:25;;;;;;;14.52;5.70;;;;;;;;;;4922955;29;20439;-77
2021/07/14 14:37:55;;;;;;;12.38;6.15;;;;;;;;;;4915582;29;20407;-70
2021/07/14 14:40:22;;;;;;;20.20;6.20;;;;;;;;;;4919469;29;20050;-79
2021/07/14 14:42:51;;;;;;;18.27;6.63;;;;;;;;;;4921478;29;20027;-70
2021/07/14 14:45:19;;;;;;;10.27;5.57;;;;;;;;;;4936843;29;20027;-66
2021/07/14 14:47:45;;;;;;;11.95;5.68;;;;;;;;;;4941572;29;20044;-71
2021/07/14 14:50:12;;;;;;;14.13;6.30;;;;;;;;;;4940634;29;20038;-75